^^
Meteo Knjazevac Station Historical Data
Daily Summary for February 14, 2021 Units:  English    Metric   Both
Daily Weekly Monthly Yearly Custom
  High: Low: Average:
Temperature: 33.8 °F 26.4 °F 31.3 °F
Dew Point: 30 °F 25.2 °F 28.5 °F
Humidity: 95% 81% 89%
Wind Speed: 9mph 0mph 3.9mph
Wind Gust: 19mph - -
Wind- - SW
Pressure: 29.98 in 29.82 in -
Precipitation: 0.00 in    
Historical Graphs
 
 
Tabular Data for February 14, 2021
Time Temperature Dew Point Pressure Wind Wind Speed Wind Gust Humidity Rainfall Rate (Hourly) solar Conditions
00:00 31.8 °F 29.2 °F 29.98 in WSW 7 mph 11 mph 90% 0.00 in 0 W/m2
00:10 31.8 °F 29.2 °F 29.98 in WSW 6 mph 11 mph 90% 0.00 in 0 W/m2
00:30 31.8 °F 29.2 °F 29.98 in WSW 6 mph 14 mph 90% 0.00 in 0 W/m2
00:40 31.8 °F 29.2 °F 29.98 in WSW 9 mph 13 mph 90% 0.00 in 0 W/m2
00:50 31.8 °F 29.2 °F 29.98 in WSW 6 mph 14 mph 90% 0.00 in 0 W/m2
01:00 31.6 °F 29 °F 29.98 in WSW 5 mph 11 mph 90% 0.00 in 0 W/m2
01:10 31.5 °F 28.9 °F 29.98 in WSW 8 mph 12 mph 90% 0.00 in 0 W/m2
01:20 31.6 °F 28.8 °F 29.98 in WSW 7 mph 13 mph 89% 0.00 in 0 W/m2
01:30 31.6 °F 28.7 °F 29.98 in WSW 8 mph 11 mph 89% 0.00 in 0 W/m2
01:40 31.6 °F 28.7 °F 29.98 in WSW 6 mph 13 mph 89% 0.00 in 0 W/m2
02:00 31.6 °F 28.7 °F 29.98 in WSW 6 mph 12 mph 89% 0.00 in 0 W/m2
02:10 31.5 °F 28.6 °F 29.98 in WSW 6 mph 8 mph 89% 0.00 in 0 W/m2
02:20 31.3 °F 28.7 °F 29.98 in WSW 6 mph 9 mph 90% 0.00 in 0 W/m2
02:30 30.9 °F 28.3 °F 29.98 in WSW 6 mph 9 mph 90% 0.00 in 0 W/m2
02:40 30.7 °F 28.2 °F 29.98 in WSW 6 mph 9 mph 90% 0.00 in 0 W/m2
02:50 30.7 °F 28.4 °F 29.97 in WSW 9 mph 13 mph 91% 0.00 in 0 W/m2
03:00 30.7 °F 28.4 °F 29.97 in WSW 6 mph 12 mph 91% 0.00 in 0 W/m2
03:10 30.6 °F 28.2 °F 29.97 in WSW 2 mph 7 mph 91% 0.00 in 0 W/m2
03:20 30.6 °F 28.2 °F 29.97 in WSW 3 mph 7 mph 91% 0.00 in 0 W/m2
03:30 30.6 °F 28.2 °F 29.97 in WSW 7 mph 8 mph 91% 0.00 in 0 W/m2
03:40 30.6 °F 28.2 °F 29.96 in WSW 3 mph 8 mph 91% 0.00 in 0 W/m2
03:50 30.6 °F 28.2 °F 29.96 in WSW 2 mph 6 mph 91% 0.00 in 0 W/m2
04:00 30.6 °F 28.2 °F 29.96 in West 2 mph 6 mph 91% 0.00 in 0 W/m2
04:10 30.6 °F 28.2 °F 29.96 in WSW 5 mph 6 mph 91% 0.00 in 0 W/m2
04:20 30.6 °F 28.2 °F 29.96 in WSW 2 mph 6 mph 91% 0.00 in 0 W/m2
04:30 30.4 °F 28.1 °F 29.95 in SW 5 mph 8 mph 91% 0.00 in 0 W/m2
04:40 30.4 °F 28.1 °F 29.95 in WSW 5 mph 8 mph 91% 0.00 in 0 W/m2
04:50 30.4 °F 28.1 °F 29.95 in WSW 5 mph 8 mph 91% 0.00 in 0 W/m2
05:00 30.3 °F 28 °F 29.94 in SW 5 mph 8 mph 91% 0.00 in 0 W/m2
05:10 30.2 °F 27.9 °F 29.94 in WSW 3 mph 8 mph 91% 0.00 in 0 W/m2
05:20 30 °F 27.7 °F 29.94 in WSW 3 mph 8 mph 91% 0.00 in 0 W/m2
05:30 29.8 °F 27.5 °F 29.94 in WSW 1 mph 7 mph 91% 0.00 in 0 W/m2
05:40 29.7 °F 27.4 °F 29.93 in West 1 mph 6 mph 91% 0.00 in 0 W/m2
05:50 29.7 °F 27.4 °F 29.93 in Calm   3 mph 91% 0.00 in 0 W/m2
06:00 29.5 °F 27.7 °F 29.93 in NW 1 mph 2 mph 93% 0.00 in 0 W/m2
06:10 29.1 °F 27.3 °F 29.92 in West 1 mph 2 mph 93% 0.00 in 0 W/m2
06:20 28.8 °F 27 °F 29.92 in Calm   3 mph 93% 0.00 in 0 W/m2
06:30 28.4 °F 26.9 °F 29.92 in WSW 2 mph 5 mph 94% 0.00 in 0 W/m2
06:40 28.2 °F 26.7 °F 29.92 in SW 1 mph 3 mph 94% 0.00 in 0 W/m2
06:50 28 °F 26.5 °F 29.92 in SW 3 mph 7 mph 94% 0.00 in 0 W/m2
07:00 28 °F 26.5 °F 29.92 in SW 2 mph 4 mph 94% 0.00 in 0 W/m2
07:10 27.9 °F 26.4 °F 29.91 in WSW 1 mph 3 mph 94% 0.00 in 7 W/m2
07:20 27.5 °F 26 °F 29.91 in WSW 1 mph 2 mph 94% 0.00 in 9 W/m2
07:30 27.1 °F 25.9 °F 29.91 in SW 1 mph 2 mph 95% 0.00 in 24 W/m2
07:40 26.7 °F 25.5 °F 29.91 in Calm   3 mph 95% 0.00 in 33 W/m2
07:50 26.4 °F 25.2 °F 29.90 in SW 1 mph 3 mph 95% 0.00 in 44 W/m2
08:00 26.5 °F 25.3 °F 29.90 in West 1 mph 3 mph 95% 0.00 in 39 W/m2
08:10 26.8 °F 25.5 °F 29.90 in Calm   2 mph 95% 0.00 in 98 W/m2
08:20 27.6 °F 26.3 °F 29.89 in ENE 3 mph 9 mph 95% 0.00 in 119 W/m2
08:30 28.6 °F 27.1 °F 29.86 in SSE 2 mph 14 mph 94% 0.00 in 139 W/m2
08:40 29.7 °F 27.9 °F 29.85 in SSE 5 mph 14 mph 93% 0.00 in 159 W/m2
08:50 30.4 °F 28.1 °F 29.85 in SSE 6 mph 11 mph 91% 0.00 in 177 W/m2
09:00 30.6 °F 28 °F 29.85 in South 1 mph 10 mph 90% 0.00 in 104 W/m2
09:10 30.7 °F 27.9 °F 29.85 in SSE 1 mph 5 mph 89% 0.00 in 81 W/m2
09:20 30.9 °F 28.1 °F 29.85 in WSW 5 mph 7 mph 89% 0.00 in 101 W/m2
09:30 31.3 °F 28.1 °F 29.84 in SW 2 mph 7 mph 88% 0.00 in 114 W/m2
09:40 31.5 °F 27.8 °F 29.84 in SSW 3 mph 8 mph 86% 0.00 in 125 W/m2
09:50 31.7 °F 28.6 °F 29.83 in SSW 3 mph 6 mph 88% 0.00 in 109 W/m2
10:00 31.8 °F 28.1 °F 29.83 in SW 5 mph 9 mph 86% 0.00 in 110 W/m2
10:10 32.1 °F 28.3 °F 29.83 in SW 5 mph 9 mph 86% 0.00 in 109 W/m2
10:20 32.2 °F 28.2 °F 29.83 in SW 6 mph 12 mph 85% 0.00 in 149 W/m2
10:30 32.4 °F 28.1 °F 29.84 in SW 7 mph 13 mph 84% 0.00 in 133 W/m2
10:40 32.6 °F 28 °F 29.84 in SW 5 mph 13 mph 83% 0.00 in 126 W/m2
10:50 32.9 °F 28.3 °F 29.83 in SSW 5 mph 14 mph 83% 0.00 in 155 W/m2
11:00 33.1 °F 28.5 °F 29.84 in South 3 mph 12 mph 83% 0.00 in 124 W/m2
11:10 33.1 °F 28.5 °F 29.82 in SSE 3 mph 7 mph 83% 0.00 in 129 W/m2
11:20 33.3 °F 28.9 °F 29.82 in SE 5 mph 9 mph 84% 0.00 in 139 W/m2
11:30 33.4 °F 29.1 °F 29.82 in ESE 3 mph 12 mph 84% 0.00 in 123 W/m2
11:40 33.4 °F 29.1 °F 29.82 in SSW 3 mph 8 mph 84% 0.00 in 113 W/m2
11:50 33.4 °F 28.8 °F 29.82 in South 3 mph 7 mph 83% 0.00 in 110 W/m2
12:00 33.4 °F 29.1 °F 29.83 in WSW 3 mph 7 mph 84% 0.00 in 100 W/m2
12:10 33.6 °F 28.7 °F 29.82 in SW 1 mph 9 mph 82% 0.00 in 95 W/m2
12:20 33.6 °F 28.4 °F 29.82 in SSE 5 mph 8 mph 81% 0.00 in 107 W/m2
12:30 33.6 °F 28.4 °F 29.82 in South 2 mph 5 mph 81% 0.00 in 112 W/m2
12:40 33.8 °F 29.2 °F 29.83 in SSW 3 mph 7 mph 83% 0.00 in 112 W/m2
12:50 33.8 °F 29.2 °F 29.83 in SSW 5 mph 12 mph 83% 0.00 in 94 W/m2
13:00 33.6 °F 29.3 °F 29.83 in SW 7 mph 17 mph 84% 0.00 in 88 W/m2
13:10 33.1 °F 29.3 °F 29.83 in SW 7 mph 17 mph 86% 0.00 in 100 W/m2
13:20 32.7 °F 29.6 °F 29.83 in SW 6 mph 13 mph 88% 0.00 in 96 W/m2
13:30 32.5 °F 29.7 °F 29.83 in SW 7 mph 14 mph 89% 0.00 in 93 W/m2
13:40 32.5 °F 29.7 °F 29.82 in SSW 3 mph 9 mph 89% 0.00 in 109 W/m2
13:50 32.7 °F 29.8 °F 29.83 in South 5 mph 12 mph 89% 0.00 in 114 W/m2
14:00 32.6 °F 29.7 °F 29.82 in SSW 3 mph 12 mph 89% 0.00 in 83 W/m2
14:10 32.7 °F 29.8 °F 29.83 in SW 3 mph 7 mph 89% 0.00 in 74 W/m2
14:20 32.7 °F 29.8 °F 29.83 in SSW 3 mph 8 mph 89% 0.00 in 61 W/m2
14:30 32.7 °F 29.5 °F 29.83 in SSW 5 mph 10 mph 88% 0.00 in 50 W/m2
14:40 32.5 °F 29.7 °F 29.83 in South 5 mph 13 mph 89% 0.00 in 45 W/m2
14:50 32.5 °F 29.7 °F 29.82 in SSW 6 mph 13 mph 89% 0.00 in 38 W/m2
15:00 32.5 °F 29.7 °F 29.83 in SW 5 mph 14 mph 89% 0.00 in 35 W/m2
15:10 32.4 °F 29.5 °F 29.83 in SSW 8 mph 15 mph 89% 0.00 in 39 W/m2
15:20 32.4 °F 29.5 °F 29.84 in SW 6 mph 15 mph 89% 0.00 in 27 W/m2
15:30 32.4 °F 29.5 °F 29.84 in SW 8 mph 13 mph 89% 0.00 in 14 W/m2
15:40 32.4 °F 29.8 °F 29.84 in SW 6 mph 12 mph 90% 0.00 in 9 W/m2
15:50 32.4 °F 29.8 °F 29.84 in SW 6 mph 12 mph 90% 0.00 in 7 W/m2
16:00 32.2 °F 29.6 °F 29.85 in WSW 8 mph 13 mph 90% 0.00 in 3 W/m2
16:10 32.2 °F 29.6 °F 29.85 in SW 6 mph 15 mph 90% 0.00 in 2 W/m2
16:20 32.2 °F 29.6 °F 29.85 in SW 6 mph 12 mph 90% 0.00 in 0 W/m2
16:30 32.2 °F 29.6 °F 29.86 in SW 5 mph 8 mph 90% 0.00 in 0 W/m2
16:40 32.2 °F 29.6 °F 29.86 in SW 5 mph 9 mph 90% 0.00 in 0 W/m2
16:50 32.2 °F 29.6 °F 29.86 in SW 3 mph 9 mph 90% 0.00 in 0 W/m2
17:00 32 °F 29.7 °F 29.86 in SW 6 mph 9 mph 91% 0.00 in 0 W/m2
17:10 32 °F 29.7 °F 29.86 in SW 1 mph 7 mph 91% 0.00 in 0 W/m2
17:20 32 °F 29.7 °F 29.86 in North 3 mph 6 mph 91% 0.00 in 0 W/m2
17:30 31.9 °F 29.6 °F 29.86 in North 3 mph 7 mph 91% 0.00 in 0 W/m2
17:40 31.8 °F 30 °F 29.87 in Calm   5 mph 93% 0.00 in 0 W/m2
17:50 31.8 °F 30 °F 29.88 in West 2 mph 7 mph 93% 0.00 in 0 W/m2
18:00 31.8 °F 30 °F 29.87 in West 2 mph 11 mph 93% 0.00 in 0 W/m2
18:10 32 °F 29.4 °F 29.88 in West 6 mph 13 mph 90% 0.00 in 0 W/m2
18:20 32 °F 29.1 °F 29.88 in WSW 7 mph 19 mph 89% 0.00 in 0 W/m2
18:30 32 °F 29.1 °F 29.88 in WSW 6 mph 15 mph 89% 0.00 in 0 W/m2
18:40 32 °F 29.1 °F 29.88 in West 3 mph 12 mph 89% 0.00 in 0 W/m2
18:50 31.8 °F 28.9 °F 29.88 in SW 3 mph 8 mph 89% 0.00 in 0 W/m2
19:00 31.6 °F 28.8 °F 29.88 in WSW 3 mph 11 mph 89% 0.00 in 0 W/m2
19:10 31.6 °F 28.8 °F 29.88 in SSE 3 mph 8 mph 89% 0.00 in 0 W/m2
19:20 31.6 °F 28.8 °F 29.88 in NNE 2 mph 8 mph 89% 0.00 in 0 W/m2
19:30 31.6 °F 28.8 °F 29.89 in ESE 2 mph 7 mph 89% 0.00 in 0 W/m2
19:40 31.8 °F 28.9 °F 29.89 in NNE 1 mph 8 mph 89% 0.00 in 0 W/m2
19:50 31.8 °F 28.9 °F 29.89 in SSE 1 mph 12 mph 89% 0.00 in 0 W/m2
20:00 31.8 °F 28.7 °F 29.89 in SSW 1 mph 7 mph 88% 0.00 in 0 W/m2
20:10 31.9 °F 29 °F 29.90 in NE 1 mph 7 mph 89% 0.00 in 0 W/m2
20:20 31.8 °F 28.9 °F 29.90 in NNE 2 mph 7 mph 89% 0.00 in 0 W/m2
20:30 31.8 °F 28.9 °F 29.91 in NNE 2 mph 7 mph 89% 0.00 in 0 W/m2
20:40 31.8 °F 28.9 °F 29.91 in NW 6 mph 9 mph 89% 0.00 in 0 W/m2
20:50 31.8 °F 29.2 °F 29.92 in West 1 mph 12 mph 90% 0.00 in 0 W/m2
21:00 31.8 °F 29.2 °F 29.92 in West 3 mph 5 mph 90% 0.00 in 0 W/m2
21:10 31.6 °F 29 °F 29.92 in Calm   6 mph 90% 0.00 in 0 W/m2
21:20 31.6 °F 29 °F 29.93 in NW 2 mph 5 mph 90% 0.00 in 0 W/m2
21:30 31.6 °F 29 °F 29.93 in WSW 7 mph 12 mph 90% 0.00 in 0 W/m2
21:40 31.5 °F 28.6 °F 29.93 in WSW 7 mph 13 mph 89% 0.00 in 0 W/m2
21:50 31.1 °F 28.5 °F 29.93 in WSW 3 mph 12 mph 90% 0.00 in 0 W/m2
22:00 30.9 °F 28.3 °F 29.93 in WSW 2 mph 9 mph 90% 0.00 in 0 W/m2
22:10 30.9 °F 28.3 °F 29.94 in WSW 1 mph 4 mph 90% 0.00 in 0 W/m2
22:20 30.9 °F 28.3 °F 29.93 in SE 2 mph 7 mph 90% 0.00 in 0 W/m2
22:30 31.1 °F 28.2 °F 29.94 in South 2 mph 8 mph 89% 0.00 in 0 W/m2
22:40 31.3 °F 28.1 °F 29.94 in SSW 5 mph 9 mph 88% 0.00 in 0 W/m2
22:50 31.5 °F 28.3 °F 29.95 in SW 5 mph 10 mph 88% 0.00 in 0 W/m2
23:00 31.5 °F 28.3 °F 29.94 in WSW 7 mph 12 mph 88% 0.00 in 0 W/m2
23:10 31.3 °F 28.4 °F 29.95 in WSW 6 mph 13 mph 89% 0.00 in 0 W/m2
23:20 31.1 °F 28.2 °F 29.94 in WSW 5 mph 14 mph 89% 0.00 in 0 W/m2
23:30 31.1 °F 28.5 °F 29.95 in WNW 2 mph 7 mph 90% 0.00 in 0 W/m2
23:50 30.9 °F 28.1 °F 29.95 in North 2 mph 6 mph 89% 0.00 in 0 W/m2
Knjazevac, Serbia
Compliments of Weather Underground - 2 mb